Time;durP1;ratioP1;P1;durP2;ratioP2;P2;SDS_P1;SDS_P2;PMS_P1;PMS_P2;Temp;Humidity;BMP_temperature;BMP_pressure;BME280_temperature;BME280_humidity;BME280_pressure;Samples;Min_cycle;Max_cycle;Signal;HPM_P1;HPM_P2
2022/09/12 00:01:12;;;;;;;8.15;7.33;;;;;;;17.55;100.00;98765.55;1683850;82;21608;-60
2022/09/12 00:03:39;;;;;;;7.45;6.83;;;;;;;17.57;100.00;98764.09;1683244;82;21682;-60
2022/09/12 00:06:17;;;;;;;8.10;7.40;;;;;;;17.56;100.00;98757.11;1688091;83;21597;-59
2022/09/12 00:08:44;;;;;;;7.78;7.17;;;;;;;17.58;100.00;98748.52;1685663;83;21742;-59
2022/09/12 00:11:11;;;;;;;7.95;6.75;;;;;;;17.56;100.00;98748.64;1700955;83;21699;-60
2022/09/12 00:13:39;;;;;;;7.67;6.95;;;;;;;17.57;100.00;98742.83;1652627;85;21528;-60
2022/09/12 00:16:13;;;;;;;7.35;6.65;;;;;;;17.58;100.00;98736.55;1646175;85;21544;-59
2022/09/12 00:18:40;;;;;;;6.40;6.00;;;;;;;17.60;100.00;98734.61;1716236;81;21662;-59
2022/09/12 00:21:07;;;;;;;6.90;6.20;;;;;;;17.59;100.00;98738.23;1718038;81;21487;-59
2022/09/12 00:23:35;;;;;;;7.35;6.67;;;;;;;17.53;100.00;98732.95;1714004;81;21406;-59
2022/09/12 00:26:04;;;;;;;6.83;6.33;;;;;;;17.45;100.00;98730.95;1721279;81;21457;-59
2022/09/12 00:28:33;;;;;;;6.37;5.87;;;;;;;17.46;100.00;98737.97;1719778;81;21450;-59
2022/09/12 00:31:04;;;;;;;6.85;6.25;;;;;;;17.47;100.00;98743.63;1719062;79;21445;-60
2022/09/12 00:33:31;;;;;;;6.85;6.05;;;;;;;17.42;100.00;98744.52;1716046;82;21038;-60
2022/09/12 00:35:58;;;;;;;7.05;6.50;;;;;;;17.42;100.00;98737.02;1720800;81;21511;-59
2022/09/12 00:38:25;;;;;;;6.45;5.97;;;;;;;17.42;100.00;98739.21;1712745;81;21879;-59
2022/09/12 00:40:51;;;;;;;6.10;5.60;;;;;;;17.42;100.00;98739.21;1716861;81;21539;-60
2022/09/12 00:43:41;;;;;;;6.83;6.33;;;;;;;17.48;100.00;98739.17;1717812;81;21602;-60
2022/09/12 00:46:33;;;;;;;6.95;6.25;;;;;;;17.47;100.00;98729.50;1721189;80;21484;-60
2022/09/12 00:49:13;;;;;;;6.20;5.70;;;;;;;17.40;100.00;98729.66;1714214;81;21486;-59
2022/09/12 00:51:46;;;;;;;7.05;6.45;;;;;;;17.38;100.00;98726.30;1718129;81;21899;-60
2022/09/12 00:54:17;;;;;;;6.58;6.03;;;;;;;17.43;100.00;98723.60;1720395;81;21553;-61
2022/09/12 00:56:44;;;;;;;5.92;5.42;;;;;;;17.46;100.00;98718.04;1723115;81;21585;-59
2022/09/12 00:59:22;;;;;;;6.40;5.83;;;;;;;17.45;100.00;98715.02;1722386;81;21637;-61
2022/09/12 01:01:49;;;;;;;6.40;5.97;;;;;;;17.43;100.00;98714.80;1720963;81;21042;-59
2022/09/12 01:04:17;;;;;;;6.60;6.10;;;;;;;17.43;100.00;98719.63;1722362;80;22019;-59
2022/09/12 01:06:44;;;;;;;6.10;5.60;;;;;;;17.35;100.00;98719.45;1732348;81;21488;-60
2022/09/12 01:09:14;;;;;;;8.00;5.67;;;;;;;17.29;100.00;98726.13;1723122;81;21519;-59
2022/09/12 01:11:41;;;;;;;6.35;5.75;;;;;;;17.25;100.00;98725.17;1723557;81;21514;-60
2022/09/12 01:14:08;;;;;;;5.60;5.20;;;;;;;17.24;100.00;98717.70;1723935;81;21585;-60
2022/09/12 01:16:36;;;;;;;5.97;5.37;;;;;;;17.25;100.00;98724.70;1660805;83;21915;-60
2022/09/12 01:19:51;;;;;;;6.20;5.60;;;;;;;17.21;100.00;98719.77;1663031;83;21485;-60
2022/09/12 01:22:38;;;;;;;5.50;4.97;;;;;;;17.19;100.00;98726.53;1690015;83;21143;-59
2022/09/12 01:25:33;;;;;;;5.90;5.50;;;;;;;17.09;100.00;98724.31;1706206;83;20994;-60
2022/09/12 01:28:17;;;;;;;5.55;4.78;;;;;;;17.03;100.00;98716.38;1644976;84;20994;-60
2022/09/12 01:30:54;;;;;;;8.23;5.40;;;;;;;16.90;100.00;98728.50;1651589;83;21867;-60
2022/09/12 01:33:57;;;;;;;5.65;5.15;;;;;;;16.77;100.00;98729.14;1639980;84;20996;-60
2022/09/12 01:36:38;;;;;;;5.15;4.53;;;;;;;16.75;100.00;98724.45;1725312;80;21051;-61
2022/09/12 01:39:29;;;;;;;5.60;4.75;;;;;;;16.69;100.00;98720.48;1675094;83;21457;-60
2022/09/12 01:42:25;;;;;;;4.70;4.30;;;;;;;16.71;100.00;98734.97;1720801;81;21013;-60
2022/09/12 01:45:04;;;;;;;4.55;4.15;;;;;;;16.72;100.00;98728.17;1723472;81;22110;-61
2022/09/12 01:47:45;;;;;;;4.72;4.33;;;;;;;16.76;100.00;98720.80;1722841;81;21459;-60
2022/09/12 01:50:26;;;;;;;6.97;4.55;;;;;;;16.79;100.00;98729.85;1723784;81;21581;-60
2022/09/12 01:52:57;;;;;;;5.92;4.37;;;;;;;16.76;100.00;98715.99;1706445;82;21086;-61
2022/09/12 01:55:38;;;;;;;5.15;4.65;;;;;;;16.69;100.00;98717.00;1700295;82;21629;-61
2022/09/12 01:58:12;;;;;;;5.30;4.35;;;;;;;16.71;100.00;98710.59;1652737;85;21835;-62
2022/09/12 02:01:02;;;;;;;4.78;4.10;;;;;;;16.70;100.00;98715.52;1702559;82;21566;-60
2022/09/12 02:04:11;;;;;;;6.33;3.95;;;;;;;16.73;100.00;98712.63;1694527;82;21452;-60
2022/09/12 02:06:51;;;;;;;4.05;3.65;;;;;;;16.73;100.00;98713.12;1697821;82;21519;-61
2022/09/12 02:09:31;;;;;;;4.03;3.60;;;;;;;16.75;100.00;98713.83;1701310;82;21588;-61
2022/09/12 02:11:59;;;;;;;4.83;4.42;;;;;;;16.69;100.00;98711.20;1698456;82;21860;-61
2022/09/12 02:14:28;;;;;;;;;;;;;;;16.73;100.00;98707.31;1701705;83;21559;-61
2022/09/12 02:17:01;;;;;;;4.12;3.72;;;;;;;16.66;100.00;98708.78;1700535;83;20533;-60
2022/09/12 02:19:33;;;;;;;4.53;4.10;;;;;;;16.58;100.00;98709.91;1690480;83;21519;-61
2022/09/12 02:22:01;;;;;;;4.00;3.72;;;;;;;16.48;100.00;98709.84;1701556;82;21450;-61
2022/09/12 02:24:32;;;;;;;4.00;3.60;;;;;;;16.45;100.00;98709.24;1701180;83;21895;-61
2022/09/12 02:29:43;;;;;;;4.17;3.83;;;;;;;15.86;100.00;98728.98;1802445;78;23136;-61
2022/09/12 02:32:25;;;;;;;3.98;3.77;;;;;;;16.38;100.00;98715.52;1764781;80;21560;-60
2022/09/12 02:34:58;;;;;;;3.80;3.37;;;;;;;16.34;100.00;98710.95;1674060;80;21421;-60
2022/09/12 02:37:50;;;;;;;3.65;3.35;;;;;;;16.29;100.00;98711.83;1771357;80;21702;-61
2022/09/12 02:40:17;;;;;;;2.70;2.50;;;;;;;16.32;100.00;98716.03;1768058;80;20998;-59
2022/09/12 02:42:44;;;;;;;4.92;3.27;;;;;;;16.27;100.00;98714.22;1758779;80;21635;-59
2022/09/12 02:45:11;;;;;;;6.22;2.40;;;;;;;16.22;100.00;98719.91;1749153;80;21597;-59
2022/09/12 02:48:02;;;;;;;2.67;2.47;;;;;;;16.20;100.00;98713.89;1763246;80;21874;-59
2022/09/12 02:50:28;;;;;;;2.25;2.10;;;;;;;16.21;100.00;98722.19;1753968;80;21511;-59
2022/09/12 02:52:58;;;;;;;2.35;2.17;;;;;;;16.18;100.00;98715.83;1767994;80;21553;-59
2022/09/12 02:55:24;;;;;;;2.20;2.10;;;;;;;16.18;100.00;98710.53;1770569;80;21100;-60
2022/09/12 02:57:50;;;;;;;3.22;2.15;;;;;;;16.12;100.00;98714.52;1711580;83;21473;-59
2022/09/12 03:00:17;;;;;;;2.72;1.98;;;;;;;16.04;100.00;98718.25;1734063;81;21928;-58
2022/09/12 03:03:10;;;;;;;2.67;1.80;;;;;;;15.98;100.00;98719.23;1717670;82;21077;-59
2022/09/12 03:05:50;;;;;;;3.15;1.98;;;;;;;16.03;100.00;98723.66;1711020;82;20973;-60
2022/09/12 03:08:22;;;;;;;4.85;1.52;;;;;;;16.04;100.00;98719.57;1701640;82;21543;-59
2022/09/12 03:11:10;;;;;;;2.92;1.52;;;;;;;16.08;100.00;98719.68;1695625;82;21434;-59
2022/09/12 03:14:01;;;;;;;3.35;1.62;;;;;;;16.08;100.00;98725.47;1714027;82;21997;-60
2022/09/12 03:16:51;;;;;;;2.10;1.40;;;;;;;16.07;100.00;98727.30;1723963;82;21662;-60
2022/09/12 03:19:25;;;;;;;1.10;1.10;;;;;;;16.05;100.00;98721.27;1708206;82;21466;-60
2022/09/12 03:22:09;;;;;;;1.00;1.00;;;;;;;15.99;100.00;98718.25;1705630;82;21487;-60
2022/09/12 03:24:44;;;;;;;2.47;0.90;;;;;;;16.02;100.00;98719.34;1716533;82;21457;-60
2022/09/12 03:27:21;;;;;;;0.70;0.70;;;;;;;15.99;100.00;98718.25;1706784;82;21863;-63
2022/09/12 03:29:48;;;;;;;;;;;;;;;15.96;100.00;98715.38;1686460;83;21511;-61
2022/09/12 03:32:14;;;;;;;0.85;0.70;;;;;;;15.90;100.00;98719.36;1680149;82;20450;-60
2022/09/12 03:34:41;;;;;;;0.62;0.62;;;;;;;15.76;100.00;98718.27;1760083;80;21446;-60
2022/09/12 03:37:07;;;;;;;0.70;0.70;;;;;;;15.68;100.00;98720.17;1762139;80;21399;-60
2022/09/12 03:39:34;;;;;;;0.60;0.60;;;;;;;15.67;100.00;98725.58;1746588;80;21712;-61
2022/09/12 03:42:01;;;;;;;0.72;0.60;;;;;;;15.64;100.00;98729.82;1762705;80;21542;-60
2022/09/12 03:44:28;;;;;;;0.68;0.68;;;;;;;15.61;100.00;98736.67;1764891;80;21505;-61
2022/09/12 03:46:54;;;;;;;1.10;0.85;;;;;;;15.57;100.00;98736.90;1748282;80;21622;-62
2022/09/12 03:49:21;;;;;;;0.35;0.33;;;;;;;15.50;100.00;98740.14;1752496;79;21501;-59
2022/09/12 03:51:48;;;;;;;1.77;0.50;;;;;;;15.42;100.00;98749.17;1762891;80;21908;-61
2022/09/12 03:54:14;;;;;;;1.95;0.70;;;;;;;15.42;100.00;98751.83;1760789;80;21502;-60
2022/09/12 03:56:41;;;;;;;1.82;0.50;;;;;;;15.33;100.00;98748.06;1762521;80;21422;-60
2022/09/12 03:59:09;;;;;;;;;;;;;;;15.24;100.00;98747.44;1764695;80;21525;-60
2022/09/12 04:01:37;;;;;;;0.70;0.70;;;;;;;15.12;100.00;98747.41;1763209;80;20205;-60
2022/09/12 04:04:04;;;;;;;0.53;0.53;;;;;;;15.08;100.00;98743.31;1754381;80;21827;-61
2022/09/12 04:06:31;;;;;;;0.90;0.90;;;;;;;15.07;100.00;98753.56;1746571;80;21628;-60
2022/09/12 04:08:59;;;;;;;0.75;0.75;;;;;;;15.12;100.00;98752.71;1752590;80;21576;-60
2022/09/12 04:11:25;;;;;;;2.17;0.60;;;;;;;15.20;100.00;98753.48;1758119;80;21556;-60
2022/09/12 04:13:54;;;;;;;0.80;0.70;;;;;;;15.26;100.00;98750.36;1752106;80;21463;-61
2022/09/12 04:16:20;;;;;;;0.70;0.60;;;;;;;15.23;100.00;98751.91;1754424;80;21747;-61
2022/09/12 04:18:47;;;;;;;3.08;0.60;;;;;;;15.30;100.00;98758.91;1752374;80;21010;-61
2022/09/12 04:21:17;;;;;;;0.60;0.60;;;;;;;15.32;100.00;98756.98;1749522;80;21484;-61
2022/09/12 04:23:43;;;;;;;0.78;0.60;;;;;;;15.30;100.00;98753.62;1755936;80;21513;-62
2022/09/12 04:26:10;;;;;;;1.00;0.88;;;;;;;15.24;100.00;98758.90;1753639;80;21584;-61
2022/09/12 04:28:37;;;;;;;3.22;0.50;;;;;;;15.15;100.00;98756.46;1751371;80;21780;-60
2022/09/12 04:31:16;;;;;;;2.07;0.57;;;;;;;15.12;100.00;98763.30;1755789;80;21505;-60
2022/09/12 04:33:43;;;;;;;0.78;0.42;;;;;;;15.12;100.00;98759.81;1749113;80;21427;-61
2022/09/12 04:36:15;;;;;;;0.50;0.42;;;;;;;15.11;100.00;98763.44;1765592;80;21602;-60
2022/09/12 04:38:44;;;;;;;0.55;0.40;;;;;;;15.08;100.00;98765.82;1762748;80;21422;-61
2022/09/12 04:41:14;;;;;;;0.40;0.40;;;;;;;15.03;100.00;98767.99;1759994;80;21822;-60
2022/09/12 04:43:41;;;;;;;0.30;0.30;;;;;;;15.01;100.00;98770.38;1758331;80;21022;-62
2022/09/12 04:46:09;;;;;;;1.75;0.40;;;;;;;15.03;100.00;98773.29;1754813;80;21533;-62
2022/09/12 04:48:36;;;;;;;0.40;0.40;;;;;;;15.05;100.00;98779.31;1759818;80;21098;-61
2022/09/12 04:51:13;;;;;;;0.50;0.30;;;;;;;15.07;100.00;98772.55;1757848;80;21025;-60
2022/09/12 04:53:41;;;;;;;3.33;0.40;;;;;;;15.06;100.00;98778.33;1757283;80;21534;-60
2022/09/12 04:56:10;;;;;;;1.95;0.40;;;;;;;15.11;100.00;98778.84;1758065;80;23277;-62
2022/09/12 04:58:38;;;;;;;0.33;0.30;;;;;;;15.09;100.00;98779.92;1755203;80;21474;-60
2022/09/12 05:01:10;;;;;;;0.30;0.30;;;;;;;15.04;100.00;98775.45;1754420;80;21568;-61
2022/09/12 05:03:38;;;;;;;1.02;0.40;;;;;;;15.05;100.00;98774.47;1764975;80;21099;-60
2022/09/12 05:06:07;;;;;;;0.40;0.40;;;;;;;15.02;100.00;98776.88;1759411;80;21764;-61
2022/09/12 05:08:37;;;;;;;0.25;0.25;;;;;;;15.01;100.00;98776.98;1758842;80;21557;-60
2022/09/12 05:11:07;;;;;;;0.30;0.30;;;;;;;15.01;100.00;98776.50;1759089;80;21544;-61
2022/09/12 05:13:35;;;;;;;0.40;0.40;;;;;;;15.03;100.00;98771.09;1758558;80;21604;-62
2022/09/12 05:16:03;;;;;;;0.30;0.25;;;;;;;15.03;100.00;98771.96;1760165;80;21423;-62
2022/09/12 05:18:34;;;;;;;1.55;0.50;;;;;;;14.99;100.00;98775.77;1752511;80;21802;-61
2022/09/12 05:21:03;;;;;;;1.12;0.23;;;;;;;14.96;100.00;98770.24;1758528;80;20951;-60
2022/09/12 05:23:30;;;;;;;0.30;0.30;;;;;;;14.98;100.00;98773.61;1759089;80;21455;-60
2022/09/12 05:25:57;;;;;;;0.30;0.28;;;;;;;14.94;100.00;98769.52;1750816;80;21507;-59
2022/09/12 05:28:27;;;;;;;0.30;0.30;;;;;;;14.93;100.00;98774.92;1751425;80;21544;-60
2022/09/12 05:31:11;;;;;;;2.92;0.40;;;;;;;14.89;100.00;98774.30;1758840;80;21892;-61
2022/09/12 05:33:39;;;;;;;0.25;0.25;;;;;;;14.83;100.00;98768.63;1754492;80;21529;-64
2022/09/12 05:36:06;;;;;;;;;;;;;;;14.83;100.00;98768.14;1750475;80;21522;-61
2022/09/12 05:38:36;;;;;;;0.85;0.60;;;;;;;14.77;100.00;98773.91;1757960;80;20497;-60
2022/09/12 05:41:09;;;;;;;5.72;0.50;;;;;;;14.74;100.00;98770.98;1754796;80;21533;-60
2022/09/12 05:43:36;;;;;;;0.55;0.30;;;;;;;14.71;100.00;98771.23;1753988;80;21792;-60
2022/09/12 05:46:12;;;;;;;0.42;0.37;;;;;;;14.64;100.00;98772.63;1759273;80;21572;-61
2022/09/12 05:48:40;;;;;;;0.30;0.30;;;;;;;14.66;100.00;98772.52;1748476;80;21489;-60
2022/09/12 05:51:19;;;;;;;0.40;0.40;;;;;;;14.65;100.00;98776.95;1761076;80;21533;-60
2022/09/12 05:53:50;;;;;;;0.62;0.47;;;;;;;14.71;100.00;98774.33;1756852;80;21084;-60
2022/09/12 05:56:19;;;;;;;0.75;0.40;;;;;;;14.68;100.00;98775.41;1753907;80;22003;-61
2022/09/12 05:58:49;;;;;;;0.33;0.33;;;;;;;14.66;100.00;98773.84;1748803;80;21545;-61
2022/09/12 06:01:17;;;;;;;1.00;0.40;;;;;;;14.66;100.00;98773.84;1754499;80;21553;-61
2022/09/12 06:03:50;;;;;;;0.40;0.40;;;;;;;14.66;100.00;98774.69;1751978;80;22587;-61
2022/09/12 06:06:19;;;;;;;0.47;0.30;;;;;;;14.64;100.00;98767.34;1760964;80;21086;-60
2022/09/12 06:08:49;;;;;;;1.07;0.40;;;;;;;14.74;100.00;98770.15;1760998;80;21817;-61
2022/09/12 06:11:19;;;;;;;0.35;0.23;;;;;;;14.77;100.00;98772.09;1754027;80;21553;-60
2022/09/12 06:13:47;;;;;;;1.02;0.40;;;;;;;14.83;100.00;98771.28;1752589;80;21549;-60
2022/09/12 06:16:18;;;;;;;1.90;0.40;;;;;;;14.85;100.00;98770.69;1752225;80;21532;-61
2022/09/12 06:18:55;;;;;;;0.40;0.40;;;;;;;14.86;100.00;98768.39;1752087;80;21541;-60
2022/09/12 06:21:22;;;;;;;0.40;0.40;;;;;;;14.87;100.00;98767.44;1757298;80;21648;-60
2022/09/12 06:23:49;;;;;;;1.47;0.50;;;;;;;14.89;100.00;98773.46;1747471;80;21541;-60
2022/09/12 06:26:17;;;;;;;1.27;1.17;;;;;;;14.88;100.00;98766.02;1755748;80;21639;-61
2022/09/12 06:28:44;;;;;;;;;;;;;;;14.95;100.00;98765.05;1752804;80;21524;-61
2022/09/12 06:31:13;;;;;;;0.57;0.33;;;;;;;14.98;100.00;98764.84;1751679;80;20185;-61
2022/09/12 06:33:43;;;;;;;1.57;0.40;;;;;;;15.01;100.00;98766.40;1749140;80;21518;-61
2022/09/12 06:36:13;;;;;;;0.60;0.35;;;;;;;15.11;100.00;98761.63;1750136;80;21577;-61
2022/09/12 06:38:40;;;;;;;1.27;0.40;;;;;;;15.20;100.00;98761.42;1753054;80;21443;-60
2022/09/12 06:41:10;;;;;;;1.02;0.40;;;;;;;15.31;100.00;98768.53;1749309;80;28674;-60
2022/09/12 06:43:37;;;;;;;0.95;0.60;;;;;;;15.35;100.00;98770.84;1751976;80;21523;-60
2022/09/12 06:46:04;;;;;;;0.30;0.30;;;;;;;15.40;100.00;98770.97;1749557;80;21837;-61
2022/09/12 06:48:31;;;;;;;0.77;0.37;;;;;;;15.44;100.00;98770.59;1746490;80;21451;-61
2022/09/12 06:51:01;;;;;;;0.57;0.55;;;;;;;15.46;100.00;98767.84;1752076;80;22125;-61
2022/09/12 06:53:29;;;;;;;0.30;0.30;;;;;;;15.53;100.00;98771.22;1749747;80;21482;-62
2022/09/12 06:56:12;;;;;;;0.98;0.40;;;;;;;15.63;100.00;98768.70;1750687;80;21501;-61
2022/09/12 06:58:40;;;;;;;0.40;0.40;;;;;;;15.63;100.00;98768.70;1741782;80;21849;-60
2022/09/12 07:01:17;;;;;;;0.40;0.40;;;;;;;15.72;100.00;98769.31;1748680;80;21578;-61
2022/09/12 07:03:55;;;;;;;;;;;;;;;15.74;100.00;98777.18;1745449;80;21557;-61
2022/09/12 07:06:24;;;;;;;0.40;0.40;;;;;;;15.78;98.63;98774.64;1756275;80;22028;-61
2022/09/12 07:08:52;;;;;;;0.65;0.50;;;;;;;15.81;100.00;98769.12;1752474;80;21582;-59
2022/09/12 07:11:23;;;;;;;0.70;0.50;;;;;;;15.87;99.21;98767.30;1742127;80;21755;-59
2022/09/12 07:13:53;;;;;;;1.22;0.40;;;;;;;15.89;97.94;98767.19;1710049;82;21165;-60
2022/09/12 07:16:22;;;;;;;2.08;0.50;;;;;;;15.93;98.04;98768.14;1683118;83;21594;-59
2022/09/12 07:18:55;;;;;;;0.50;0.40;;;;;;;15.95;98.40;98773.32;1737101;80;21657;-60
2022/09/12 07:21:22;;;;;;;1.10;0.50;;;;;;;16.02;98.05;98769.23;1749485;80;22594;-61
2022/09/12 07:23:50;;;;;;;0.72;0.62;;;;;;;16.14;97.33;98766.94;1714149;82;21893;-60
2022/09/12 07:26:17;;;;;;;0.57;0.57;;;;;;;16.27;97.07;98769.92;1752427;80;21484;-59
2022/09/12 07:28:44;;;;;;;0.60;0.60;;;;;;;16.28;96.31;98776.44;1755791;80;21584;-60
2022/09/12 07:31:16;;;;;;;0.80;0.80;;;;;;;16.34;96.35;98775.94;1760341;80;21553;-60
2022/09/12 07:33:43;;;;;;;0.72;0.60;;;;;;;16.37;94.71;98771.34;1757846;80;21414;-59
2022/09/12 07:36:12;;;;;;;1.45;0.75;;;;;;;16.37;94.75;98760.27;1755550;80;22035;-60
2022/09/12 07:38:39;;;;;;;0.72;0.72;;;;;;;16.38;95.30;98758.45;1759257;80;21442;-61
2022/09/12 07:41:16;;;;;;;0.88;0.88;;;;;;;16.46;95.20;98764.84;1755932;80;21477;-60
2022/09/12 07:43:43;;;;;;;0.83;0.80;;;;;;;16.54;94.18;98764.22;1751212;80;21458;-60
2022/09/12 07:46:10;;;;;;;1.87;1.30;;;;;;;16.57;94.23;98765.27;1757956;80;21495;-61
2022/09/12 07:48:38;;;;;;;1.20;1.10;;;;;;;16.63;94.38;98770.56;1758910;80;21945;-61
2022/09/12 07:51:06;;;;;;;1.25;1.10;;;;;;;16.55;94.29;98770.70;1758561;80;21541;-60
2022/09/12 07:53:38;;;;;;;2.15;1.20;;;;;;;16.51;94.59;98779.05;1755431;80;21449;-61
2022/09/12 07:56:05;;;;;;;1.22;1.12;;;;;;;16.48;94.45;98773.52;1760513;80;21482;-61
2022/09/12 07:58:33;;;;;;;1.32;1.22;;;;;;;16.48;94.89;98772.19;1764057;80;21553;-61
2022/09/12 08:01:13;;;;;;;;;;;;;;;16.53;95.06;98772.63;1761053;80;21808;-59
2022/09/12 08:03:41;;;;;;;1.27;1.17;;;;;;;16.58;92.16;98762.16;1762891;80;20424;-60
2022/09/12 08:06:12;;;;;;;1.32;1.17;;;;;;;16.58;93.21;98764.81;1758319;80;21534;-61
2022/09/12 08:08:39;;;;;;;1.12;1.10;;;;;;;16.63;92.93;98773.21;1758613;80;21529;-60
2022/09/12 08:11:09;;;;;;;1.87;1.23;;;;;;;16.67;92.20;98767.55;1753151;80;21573;-60
2022/09/12 08:13:38;;;;;;;1.15;1.07;;;;;;;16.77;91.49;98761.48;1767727;80;21418;-61
2022/09/12 08:16:07;;;;;;;1.30;1.17;;;;;;;16.88;90.68;98755.67;1756029;80;21438;-61
2022/09/12 08:18:36;;;;;;;1.05;0.90;;;;;;;16.97;89.61;98754.54;1761392;80;21462;-59
2022/09/12 08:21:05;;;;;;;2.60;1.07;;;;;;;17.01;88.13;98750.65;1758381;80;21633;-59
2022/09/12 08:23:32;;;;;;;0.88;0.88;;;;;;;17.03;88.69;98749.57;1764517;80;21494;-59
2022/09/12 08:26:01;;;;;;;1.20;1.10;;;;;;;16.99;88.81;98748.15;1758647;80;22596;-61
2022/09/12 08:28:30;;;;;;;1.27;1.17;;;;;;;17.05;87.69;98751.61;1751164;80;21506;-59
2022/09/12 08:31:07;;;;;;;1.37;1.27;;;;;;;17.09;87.62;98753.03;1740609;80;21609;-60
2022/09/12 08:33:34;;;;;;;2.12;1.10;;;;;;;17.11;87.23;98753.74;1756519;80;21466;-60
2022/09/12 08:36:12;;;;;;;1.72;1.25;;;;;;;17.18;89.08;98753.22;1752019;80;21542;-61
2022/09/12 08:38:42;;;;;;;1.37;1.27;;;;;;;17.29;88.61;98747.38;1753875;80;21886;-61
2022/09/12 08:41:39;;;;;;;1.47;1.37;;;;;;;17.36;86.86;98747.68;1745174;80;21547;-60
2022/09/12 08:44:29;;;;;;;1.35;1.25;;;;;;;17.51;87.29;98751.68;1747839;80;21471;-61
2022/09/12 08:47:08;;;;;;;1.70;1.30;;;;;;;17.69;87.46;98747.10;1744103;80;21006;-60
2022/09/12 08:50:03;;;;;;;2.80;1.37;;;;;;;17.84;86.49;98741.81;1757673;80;21546;-59
2022/09/12 08:52:38;;;;;;;1.27;1.25;;;;;;;17.95;84.39;98740.88;1708302;82;21846;-60
2022/09/12 08:55:07;;;;;;;5.62;1.35;;;;;;;17.89;83.57;98739.60;1719507;82;21553;-61
2022/09/12 08:57:36;;;;;;;1.37;1.15;;;;;;;17.87;83.36;98736.20;1744440;80;21616;-60
2022/09/12 09:00:05;;;;;;;1.00;0.95;;;;;;;17.92;84.50;98738.98;1755531;80;21644;-60
2022/09/12 09:02:40;;;;;;;1.30;1.20;;;;;;;18.01;84.19;98735.52;1737063;80;21038;-62
2022/09/12 09:05:33;;;;;;;0.90;0.90;;;;;;;18.02;83.31;98733.19;1744822;80;21763;-61
2022/09/12 09:08:32;;;;;;;1.00;0.90;;;;;;;18.01;83.30;98735.52;1690173;80;21428;-60
2022/09/12 09:11:30;;;;;;;0.93;0.88;;;;;;;18.06;84.13;98735.92;1750203;80;21423;-60
2022/09/12 09:16:59;;;;;;;4.72;1.02;;;;;;;18.25;82.18;98737.80;1752956;80;21077;-61
2022/09/12 09:19:36;;;;;;;0.80;0.80;;;;;;;18.28;82.15;98745.52;1747119;80;21937;-60
2022/09/12 09:22:12;;;;;;;1.80;0.80;;;;;;;18.33;81.52;98741.96;1753487;80;21132;-61
2022/09/12 09:24:55;;;;;;;1.20;0.93;;;;;;;18.26;80.99;98744.81;1741929;80;20953;-62
2022/09/12 09:27:30;;;;;;;0.80;0.80;;;;;;;18.24;80.61;98738.79;1745461;80;21490;-61
2022/09/12 09:29:56;;;;;;;2.37;0.88;;;;;;;18.19;81.32;98742.34;1757892;80;21518;-61
2022/09/12 09:32:31;;;;;;;1.75;0.90;;;;;;;18.12;81.96;98748.70;1763882;80;21898;-62
2022/09/12 09:34:57;;;;;;;1.20;1.10;;;;;;;18.08;81.24;98748.13;1710566;82;21474;-61
2022/09/12 09:37:42;;;;;;;1.07;0.98;;;;;;;17.95;81.10;98755.97;1754387;80;21095;-61
2022/09/12 09:40:40;;;;;;;0.62;0.62;;;;;;;17.81;80.73;98755.33;1760152;80;21538;-60
2022/09/12 09:43:18;;;;;;;1.15;0.90;;;;;;;17.78;80.85;98751.63;1765775;80;21558;-62
2022/09/12 09:45:45;;;;;;;1.75;0.95;;;;;;;17.74;80.61;98754.67;1761367;80;21838;-61
2022/09/12 09:48:21;;;;;;;0.70;0.70;;;;;;;17.66;81.12;98746.03;1760527;80;20994;-60
2022/09/12 09:50:48;;;;;;;1.62;0.70;;;;;;;17.72;81.39;98756.13;1768941;80;21104;-60
2022/09/12 09:53:57;;;;;;;1.25;0.90;;;;;;;17.66;80.76;98757.50;1756770;80;21455;-60
2022/09/12 09:56:34;;;;;;;0.50;0.50;;;;;;;17.68;80.94;98760.03;1758387;80;21080;-60
2022/09/12 09:59:26;;;;;;;0.70;0.70;;;;;;;17.66;81.65;98756.66;1757009;80;21447;-60
2022/09/12 10:02:15;;;;;;;0.62;0.62;;;;;;;17.70;81.67;98754.92;1760936;80;21609;-60
2022/09/12 10:04:56;;;;;;;0.60;0.60;;;;;;;17.67;81.58;98754.38;1759751;80;21014;-59
2022/09/12 10:07:24;;;;;;;0.50;0.50;;;;;;;17.67;81.84;98759.69;1756954;79;20997;-60
2022/09/12 10:10:18;;;;;;;0.70;0.70;;;;;;;17.63;80.76;98762.23;1763905;80;21009;-61
2022/09/12 10:12:45;;;;;;;3.85;0.82;;;;;;;17.61;81.18;98760.20;1750793;80;21905;-59
2022/09/12 10:15:25;;;;;;;1.00;0.70;;;;;;;17.63;82.00;98763.09;1762637;80;21530;-59
2022/09/12 10:17:54;;;;;;;0.40;0.40;;;;;;;17.67;81.69;98765.84;1757585;80;21557;-59
2022/09/12 10:20:37;;;;;;;0.55;0.47;;;;;;;17.68;82.10;98762.19;1755739;80;20997;-59
2022/09/12 10:23:34;;;;;;;1.32;0.50;;;;;;;17.71;81.80;98766.42;1763767;80;21556;-61
2022/09/12 10:26:02;;;;;;;;;;;;;;;17.77;81.75;98770.37;1761634;80;22080;-59
2022/09/12 10:28:33;;;;;;;0.72;0.47;;;;;;;17.67;79.98;98772.98;1752935;80;20429;-59
2022/09/12 10:31:01;;;;;;;0.50;0.50;;;;;;;17.58;81.94;98771.94;1759049;80;21538;-59
2022/09/12 10:33:28;;;;;;;2.17;0.62;;;;;;;17.55;82.30;98775.34;1749582;80;21014;-59
2022/09/12 10:35:54;;;;;;;1.45;0.60;;;;;;;17.54;82.13;98773.65;1752566;80;21545;-59
2022/09/12 10:38:29;;;;;;;0.50;0.50;;;;;;;17.51;81.67;98775.59;1748476;80;22111;-59
2022/09/12 10:41:05;;;;;;;0.35;0.35;;;;;;;17.48;81.43;98778.53;1750237;80;21554;-60
2022/09/12 10:43:36;;;;;;;0.40;0.40;;;;;;;17.50;81.17;98779.73;1751940;80;21522;-60
2022/09/12 10:46:20;;;;;;;1.65;0.40;;;;;;;17.53;80.80;98781.28;1749065;80;21444;-59
2022/09/12 10:48:49;;;;;;;0.60;0.60;;;;;;;17.50;80.98;98781.90;1747500;80;21535;-58
2022/09/12 10:51:27;;;;;;;0.50;0.50;;;;;;;17.44;80.82;98785.09;1754215;80;21495;-59
2022/09/12 10:53:59;;;;;;;0.30;0.30;;;;;;;17.51;81.29;98786.72;1741233;80;21532;-59
2022/09/12 10:56:34;;;;;;;1.92;0.40;;;;;;;17.54;80.80;98790.45;1753901;80;21018;-59
2022/09/12 10:59:30;;;;;;;0.42;0.40;;;;;;;17.48;80.76;98789.66;1727367;80;21054;-60
2022/09/12 11:02:26;;;;;;;0.40;0.40;;;;;;;17.40;80.77;98787.63;1748152;80;21525;-59
2022/09/12 11:05:14;;;;;;;1.10;0.50;;;;;;;17.28;81.40;98789.52;1737650;80;21833;-60
2022/09/12 11:07:45;;;;;;;0.40;0.40;;;;;;;17.18;81.18;98789.94;1752119;80;21628;-59
2022/09/12 11:10:27;;;;;;;0.60;0.50;;;;;;;17.06;82.51;98798.42;1753677;80;21027;-59
2022/09/12 11:13:23;;;;;;;0.80;0.50;;;;;;;16.97;83.14;98798.34;1747932;80;21550;-61
2022/09/12 11:16:04;;;;;;;0.50;0.50;;;;;;;16.67;84.51;98754.28;1754841;80;21525;-59
2022/09/12 11:19:06;;;;;;;0.60;0.60;;;;;;;17.00;86.41;98802.09;1746149;80;21624;-59
2022/09/12 11:22:01;;;;;;;0.50;0.50;;;;;;;17.08;86.93;98805.80;1755406;80;21517;-61
2022/09/12 11:24:45;;;;;;;0.62;0.62;;;;;;;17.16;86.18;98808.28;1749203;80;21570;-58
2022/09/12 11:27:36;;;;;;;0.98;0.65;;;;;;;17.17;85.17;98800.69;1755090;80;21573;-59
2022/09/12 11:30:11;;;;;;;1.02;0.53;;;;;;;17.13;84.50;98800.09;1756296;80;21467;-58
2022/09/12 11:33:08;;;;;;;0.53;0.53;;;;;;;17.12;84.38;98798.40;1712409;82;21789;-58
2022/09/12 11:35:49;;;;;;;0.70;0.50;;;;;;;17.10;83.99;98799.88;1711482;82;21478;-58
2022/09/12 11:38:44;;;;;;;2.30;0.42;;;;;;;17.11;83.92;98800.22;1752744;80;21642;-59
2022/09/12 11:41:18;;;;;;;0.57;0.57;;;;;;;17.17;84.10;98796.20;1754837;80;22159;-59
2022/09/12 11:43:55;;;;;;;1.07;0.40;;;;;;;17.32;84.95;98794.08;1753802;80;21541;-59
2022/09/12 11:46:39;;;;;;;0.53;0.50;;;;;;;17.51;84.62;98796.86;1743162;80;21671;-59
2022/09/12 11:49:25;;;;;;;0.93;0.45;;;;;;;17.67;83.45;98792.92;1753449;80;21670;-59
2022/09/12 11:52:08;;;;;;;0.70;0.70;;;;;;;17.80;82.04;98792.67;1748214;80;21518;-59
2022/09/12 11:54:57;;;;;;;0.37;0.37;;;;;;;17.94;81.29;98787.05;1753278;80;21529;-59
2022/09/12 11:57:43;;;;;;;0.50;0.50;;;;;;;18.09;80.51;98787.53;1751340;80;21439;-59
2022/09/12 12:00:31;;;;;;;2.55;0.95;;;;;;;18.22;79.57;98792.62;1745810;80;21548;-59
2022/09/12 12:03:07;;;;;;;0.70;0.70;;;;;;;18.27;78.96;98791.70;1755861;80;21495;-59
2022/09/12 12:05:56;;;;;;;0.57;0.57;;;;;;;18.23;78.60;98794.30;1755272;80;21569;-59
2022/09/12 12:08:25;;;;;;;1.82;0.60;;;;;;;18.15;79.09;98786.16;1748817;80;21444;-60
2022/09/12 12:10:59;;;;;;;;;;;;;;;18.13;78.78;98789.44;1744351;80;21518;-61